createdAt,value
2018-10-05T00:00:03.732Z,61.59
2018-10-05T00:02:32.269Z,61.68
2018-10-05T00:05:00.847Z,61.65
2018-10-05T00:07:30.552Z,61.62
2018-10-05T00:09:59.161Z,61.71
2018-10-05T00:12:27.772Z,61.20
2018-10-05T00:14:56.390Z,61.74
2018-10-05T00:17:25.101Z,61.55
2018-10-05T00:19:53.615Z,61.51
2018-10-05T00:22:22.177Z,61.48
2018-10-05T00:24:50.700Z,61.50
2018-10-05T00:27:19.287Z,61.70
2018-10-05T00:29:47.811Z,61.59
2018-10-05T00:32:16.398Z,61.51
2018-10-05T00:34:44.891Z,61.60
2018-10-05T00:37:13.442Z,61.52
2018-10-05T00:39:41.991Z,61.55
2018-10-05T00:42:10.442Z,61.63
2018-10-05T00:44:38.894Z,61.82
2018-10-05T00:47:07.450Z,61.64
2018-10-05T00:49:36.008Z,62.16
2018-10-05T00:52:04.544Z,62.19
2018-10-05T00:54:33.000Z,62.05
2018-10-05T00:57:01.506Z,61.68
2018-10-05T00:59:30.062Z,61.40
2018-10-05T01:01:58.586Z,62.15
2018-10-05T01:04:27.065Z,61.87
2018-10-05T01:06:55.539Z,61.93
2018-10-05T01:09:24.105Z,61.95
2018-10-05T01:11:52.659Z,62.17
2018-10-05T01:14:21.176Z,61.77
2018-10-05T01:16:49.663Z,62.21
2018-10-05T01:19:18.206Z,62.00
2018-10-05T01:21:46.679Z,61.84
2018-10-05T01:24:15.183Z,61.78
2018-10-05T01:26:43.703Z,61.87
2018-10-05T01:29:12.172Z,61.81
2018-10-05T01:31:40.629Z,61.92
2018-10-05T01:34:09.132Z,62.04
2018-10-05T01:36:37.586Z,61.92
2018-10-05T01:39:06.823Z,61.70
2018-10-05T01:41:35.310Z,61.64
2018-10-05T01:44:03.807Z,61.86
2018-10-05T01:46:32.289Z,61.73
2018-10-05T01:49:00.825Z,61.74
2018-10-05T01:51:32.894Z,62.01
2018-10-05T01:54:02.259Z,62.17
2018-10-05T01:56:31.229Z,61.87
2018-10-05T01:59:00.302Z,61.87
2018-10-05T02:01:36.636Z,61.78
2018-10-05T02:04:06.021Z,61.93
2018-10-05T02:06:34.506Z,62.19
2018-10-05T02:09:03.306Z,61.83
2018-10-05T02:11:31.813Z,61.99
2018-10-05T02:14:00.385Z,62.07
2018-10-05T02:16:28.911Z,62.06
2018-10-05T02:18:57.446Z,62.35
2018-10-05T02:21:25.938Z,62.58
2018-10-05T02:23:54.521Z,61.89
2018-10-05T02:26:22.967Z,62.23
2018-10-05T02:28:51.434Z,62.24
2018-10-05T02:31:19.875Z,62.45
2018-10-05T02:33:48.354Z,62.20
2018-10-05T02:36:16.889Z,62.10
2018-10-05T02:38:45.442Z,62.31
2018-10-05T02:41:13.929Z,62.14
2018-10-05T02:43:42.422Z,62.16
2018-10-05T02:46:10.881Z,62.25
2018-10-05T02:48:39.418Z,62.21
2018-10-05T02:51:07.875Z,62.53
2018-10-05T02:53:36.803Z,62.11
2018-10-05T02:56:05.340Z,62.25
2018-10-05T02:58:33.845Z,61.92
2018-10-05T03:01:13.513Z,62.11
2018-10-05T03:03:42.057Z,62.71
2018-10-05T03:06:10.613Z,62.83
2018-10-05T03:08:39.123Z,62.64
2018-10-05T03:11:07.691Z,62.79
2018-10-05T03:13:36.264Z,62.44
2018-10-05T03:16:04.761Z,62.42
2018-10-05T03:18:33.269Z,62.58
2018-10-05T03:21:01.903Z,62.78
2018-10-05T03:23:30.529Z,62.22
2018-10-05T03:25:59.091Z,62.51
2018-10-05T03:28:27.599Z,62.50
2018-10-05T03:30:56.153Z,62.39
2018-10-05T03:33:24.596Z,62.43
2018-10-05T03:35:53.119Z,62.55
2018-10-05T03:38:21.634Z,62.36
2018-10-05T03:40:50.117Z,62.23
2018-10-05T03:43:18.625Z,63.02
2018-10-05T03:45:47.076Z,62.77
2018-10-05T03:48:15.549Z,62.80
2018-10-05T03:50:43.998Z,62.50
2018-10-05T03:53:12.450Z,62.55
2018-10-05T03:55:41.007Z,62.54
2018-10-05T03:58:09.541Z,62.63
2018-10-05T04:00:38.059Z,62.60
2018-10-05T04:03:06.573Z,62.46
2018-10-05T04:05:35.071Z,62.54
2018-10-05T04:08:03.587Z,62.88
2018-10-05T04:10:32.128Z,62.83
2018-10-05T04:13:00.647Z,62.75
2018-10-05T04:15:29.147Z,62.95
2018-10-05T04:17:57.684Z,62.43
2018-10-05T04:20:26.227Z,62.57
2018-10-05T04:22:54.725Z,62.59
2018-10-05T04:25:23.220Z,62.27
2018-10-05T04:27:51.701Z,62.62
2018-10-05T04:30:20.263Z,62.93
2018-10-05T04:32:48.822Z,62.92
2018-10-05T04:35:17.347Z,62.48
2018-10-05T04:37:45.900Z,62.52
2018-10-05T04:40:14.504Z,62.43
2018-10-05T04:42:42.990Z,62.52
2018-10-05T04:48:01.834Z,62.61
2018-10-05T04:50:30.269Z,62.24
2018-10-05T04:52:58.843Z,62.51
2018-10-05T04:55:27.345Z,62.36
2018-10-05T04:57:55.816Z,62.47
2018-10-05T05:00:24.385Z,62.34
2018-10-05T05:02:52.920Z,62.57
2018-10-05T05:05:21.413Z,62.31
2018-10-05T05:07:50.032Z,62.34
2018-10-05T05:10:18.575Z,62.69
2018-10-05T05:12:47.135Z,62.50
2018-10-05T05:15:15.698Z,62.39
2018-10-05T05:17:44.242Z,62.67
2018-10-05T05:20:12.839Z,62.08
2018-10-05T05:22:41.425Z,62.50
2018-10-05T05:25:09.980Z,62.56
2018-10-05T05:27:38.521Z,62.46
2018-10-05T05:30:07.423Z,62.44
2018-10-05T05:32:35.941Z,62.49
2018-10-05T05:35:04.593Z,62.72
2018-10-05T05:37:33.097Z,62.57
2018-10-05T05:40:01.627Z,62.40
2018-10-05T05:42:30.285Z,62.49
2018-10-05T05:44:58.811Z,62.27
2018-10-05T05:47:27.413Z,62.24
2018-10-05T05:49:55.935Z,62.22
2018-10-05T05:52:24.622Z,62.18
2018-10-05T05:54:53.362Z,61.82
2018-10-05T05:57:22.012Z,62.26
2018-10-05T05:59:50.507Z,62.00
2018-10-05T06:02:19.080Z,62.04
2018-10-05T06:04:47.613Z,62.07
2018-10-05T06:07:16.203Z,62.08
2018-10-05T06:09:44.768Z,62.14
2018-10-05T06:12:13.650Z,62.17
2018-10-05T06:14:42.175Z,62.04
2018-10-05T06:17:10.743Z,62.02
2018-10-05T06:19:39.351Z,61.89
2018-10-05T06:22:08.043Z,62.04
2018-10-05T06:24:36.536Z,62.18
2018-10-05T06:27:05.373Z,62.17
2018-10-05T06:29:35.608Z,61.85
2018-10-05T06:32:04.588Z,61.85
2018-10-05T06:34:33.135Z,61.93
2018-10-05T06:37:01.729Z,61.79
2018-10-05T06:39:30.318Z,60.09
2018-10-05T06:41:58.913Z,59.50
2018-10-05T06:44:27.555Z,58.01
2018-10-05T06:46:56.209Z,57.47
2018-10-05T06:49:24.858Z,56.60
2018-10-05T06:51:53.576Z,54.20
2018-10-05T06:54:22.128Z,52.46
2018-10-05T06:56:50.877Z,51.25
2018-10-05T06:59:19.378Z,50.17
2018-10-05T07:01:48.045Z,48.75
2018-10-05T07:04:16.548Z,46.72
2018-10-05T07:06:45.053Z,44.53
2018-10-05T07:09:13.550Z,43.92
2018-10-05T07:11:42.098Z,42.32
2018-10-05T07:14:10.567Z,41.66
2018-10-05T07:16:39.113Z,40.55
2018-10-05T07:19:07.642Z,39.81
2018-10-05T07:21:36.131Z,38.88
2018-10-05T07:24:04.597Z,36.85
2018-10-05T07:26:33.106Z,36.64
2018-10-05T07:29:01.552Z,34.92
2018-10-05T07:31:30.047Z,34.63
2018-10-05T07:33:58.514Z,32.29
2018-10-05T07:36:27.084Z,32.84
2018-10-05T07:38:55.587Z,30.67
2018-10-05T07:41:24.410Z,29.27
2018-10-05T07:46:45.926Z,27.67
2018-10-05T07:49:14.898Z,26.42
2018-10-05T07:51:43.668Z,25.89
2018-10-05T07:54:12.201Z,25.65
2018-10-05T07:56:40.795Z,23.94
2018-10-05T07:59:09.430Z,24.57
2018-10-05T08:01:42.262Z,23.01
2018-10-05T08:04:10.700Z,21.68
2018-10-05T08:06:39.729Z,22.45
2018-10-05T08:09:08.204Z,22.99
2018-10-05T08:11:36.704Z,22.76
2018-10-05T08:14:05.155Z,22.18
2018-10-05T08:16:33.748Z,20.42
2018-10-05T08:19:02.308Z,20.58
2018-10-05T08:21:30.921Z,20.41
2018-10-05T08:23:59.363Z,20.21
2018-10-05T08:26:28.149Z,18.85
2018-10-05T08:28:57.030Z,19.72
2018-10-05T08:31:25.716Z,20.19
2018-10-05T08:33:54.414Z,19.49
2018-10-05T08:36:23.185Z,18.11
2018-10-05T08:38:52.171Z,18.26
2018-10-05T08:41:20.720Z,17.31
2018-10-05T08:43:49.769Z,16.88
2018-10-05T08:46:18.674Z,16.47
2018-10-05T08:48:47.971Z,16.97
2018-10-05T08:51:20.605Z,17.36
2018-10-05T08:53:49.611Z,17.11
2018-10-05T08:56:18.055Z,16.43
2018-10-05T08:58:46.627Z,17.05
2018-10-05T09:01:15.251Z,16.71
2018-10-05T09:03:43.929Z,15.49
2018-10-05T09:06:12.537Z,14.68
2018-10-05T09:08:41.276Z,14.37
2018-10-05T09:11:09.938Z,15.24
2018-10-05T09:13:41.306Z,15.12
2018-10-05T09:16:09.787Z,13.75
2018-10-05T09:18:38.387Z,14.25
2018-10-05T09:21:06.931Z,13.69
2018-10-05T09:23:35.664Z,13.54
2018-10-05T09:26:04.219Z,13.54
2018-10-05T09:28:33.100Z,13.60
2018-10-05T09:31:01.663Z,13.87
2018-10-05T09:33:31.202Z,13.58
2018-10-05T09:35:59.847Z,13.69
2018-10-05T09:38:28.573Z,14.56
2018-10-05T09:40:57.130Z,13.93
2018-10-05T09:43:27.984Z,13.15
2018-10-05T09:46:00.908Z,12.63
2018-10-05T09:48:29.411Z,12.72
2018-10-05T09:50:58.330Z,12.55
2018-10-05T09:53:26.832Z,12.70
2018-10-05T09:55:55.430Z,12.05
2018-10-05T09:58:23.961Z,11.86
2018-10-05T10:00:57.431Z,11.68
2018-10-05T10:03:30.579Z,11.22
2018-10-05T10:06:00.156Z,11.33
2018-10-05T10:08:28.882Z,11.42
2018-10-05T10:10:57.592Z,10.86
2018-10-05T10:13:26.497Z,11.11
2018-10-05T10:15:56.071Z,10.46
2018-10-05T10:18:24.868Z,9.75
2018-10-05T10:20:53.866Z,9.98
2018-10-05T10:23:22.428Z,10.18
2018-10-05T10:25:50.951Z,9.39
2018-10-05T10:28:19.520Z,9.65
2018-10-05T10:30:47.936Z,9.16
2018-10-05T10:33:16.863Z,8.96
2018-10-05T10:35:45.393Z,8.73
2018-10-05T10:38:13.953Z,8.94
2018-10-05T10:40:42.652Z,9.36
2018-10-05T10:43:11.213Z,8.74
2018-10-05T10:45:39.755Z,8.81
2018-10-05T10:48:10.501Z,8.60
2018-10-05T10:50:39.485Z,8.23
2018-10-05T10:53:09.823Z,8.01
2018-10-05T10:55:39.829Z,8.26
2018-10-05T10:58:08.443Z,7.05
2018-10-05T11:00:36.935Z,7.37
2018-10-05T11:03:05.456Z,7.81
2018-10-05T11:05:33.942Z,7.28
2018-10-05T11:08:02.417Z,7.68
2018-10-05T11:10:30.897Z,7.80
2018-10-05T11:12:59.390Z,7.69
2018-10-05T11:15:27.952Z,7.53
2018-10-05T11:17:56.438Z,6.43
2018-10-05T11:20:25.075Z,6.73
2018-10-05T11:22:53.640Z,6.16
2018-10-05T11:25:22.198Z,6.33
2018-10-05T11:27:50.760Z,6.51
2018-10-05T11:30:19.313Z,5.91
2018-10-05T11:32:47.940Z,5.73
2018-10-05T11:35:16.448Z,5.70
2018-10-05T11:37:44.937Z,5.65
2018-10-05T11:40:13.423Z,5.87
2018-10-05T11:42:42.027Z,5.92
2018-10-05T11:45:10.622Z,5.68
2018-10-05T11:47:39.227Z,5.69
2018-10-05T11:50:07.695Z,4.93
2018-10-05T11:52:36.262Z,5.26
2018-10-05T11:55:04.746Z,5.25
2018-10-05T11:57:33.267Z,5.28
2018-10-05T12:00:01.853Z,6.29
2018-10-05T12:02:30.496Z,7.72
2018-10-05T12:04:59.014Z,7.85
2018-10-05T12:07:27.551Z,9.31
2018-10-05T12:09:56.046Z,10.40
2018-10-05T12:12:24.559Z,10.75
2018-10-05T12:14:53.064Z,11.86
2018-10-05T12:17:21.658Z,13.87
2018-10-05T12:19:50.242Z,15.05
2018-10-05T12:22:18.851Z,16.02
2018-10-05T12:24:47.386Z,15.73
2018-10-05T12:27:15.963Z,17.44
2018-10-05T12:29:44.493Z,17.45
2018-10-05T12:32:13.066Z,18.34
2018-10-05T12:34:42.725Z,18.60
2018-10-05T12:37:12.829Z,18.86
2018-10-05T12:39:41.569Z,19.75
2018-10-05T12:42:10.237Z,20.02
2018-10-05T12:44:38.748Z,19.79
2018-10-05T12:47:07.348Z,20.70
2018-10-05T12:49:36.484Z,20.54
2018-10-05T12:52:05.022Z,20.86
2018-10-05T12:54:33.556Z,21.62
2018-10-05T12:57:02.189Z,21.54
2018-10-05T12:59:30.865Z,22.30
2018-10-05T13:01:59.340Z,22.60
2018-10-05T13:04:27.850Z,22.36
2018-10-05T13:06:56.305Z,22.71
2018-10-05T13:09:24.851Z,22.47
2018-10-05T13:11:53.349Z,23.00
2018-10-05T13:14:21.881Z,22.67
2018-10-05T13:16:50.416Z,23.27
2018-10-05T13:19:18.889Z,23.03
2018-10-05T13:21:47.358Z,23.23
2018-10-05T13:24:15.928Z,23.81
2018-10-05T13:26:44.395Z,24.34
2018-10-05T13:29:12.896Z,23.37
2018-10-05T13:31:41.423Z,24.22
2018-10-05T13:34:10.000Z,24.68
2018-10-05T13:36:38.410Z,24.53
2018-10-05T13:39:09.081Z,24.23
2018-10-05T13:41:37.631Z,24.49
2018-10-05T13:44:06.232Z,23.21
2018-10-05T13:46:35.248Z,22.99
2018-10-05T13:49:04.973Z,22.94
2018-10-05T13:51:33.904Z,22.90
2018-10-05T13:54:02.464Z,22.84
2018-10-05T13:56:31.075Z,23.49
2018-10-05T13:58:59.625Z,23.50
2018-10-05T14:01:28.666Z,23.98
2018-10-05T14:03:57.286Z,23.84
2018-10-05T14:06:25.899Z,23.23
2018-10-05T14:08:54.390Z,23.39
2018-10-05T14:11:22.969Z,24.02
2018-10-05T14:13:51.878Z,23.31
2018-10-05T14:16:20.374Z,24.16
2018-10-05T14:18:48.844Z,23.77
2018-10-05T14:21:18.049Z,24.30
2018-10-05T14:23:46.583Z,23.57
2018-10-05T14:26:15.312Z,24.06
2018-10-05T14:28:43.878Z,23.96
2018-10-05T14:31:12.504Z,24.70
2018-10-05T14:33:41.123Z,24.12
2018-10-05T14:36:09.641Z,24.77
2018-10-05T14:38:38.319Z,25.14
2018-10-05T14:41:06.981Z,25.25
2018-10-05T14:43:35.555Z,24.43
2018-10-05T14:46:04.151Z,24.53
2018-10-05T14:48:32.790Z,25.04
2018-10-05T14:51:01.439Z,25.09
2018-10-05T14:53:30.135Z,25.07
2018-10-05T14:55:58.775Z,25.16
2018-10-05T14:58:27.385Z,24.39
2018-10-05T15:00:56.077Z,25.38
2018-10-05T15:03:24.731Z,24.35
2018-10-05T15:05:53.296Z,24.23
2018-10-05T15:08:21.803Z,24.96
2018-10-05T15:10:50.627Z,24.81
2018-10-05T15:13:19.207Z,24.49
2018-10-05T15:15:47.803Z,25.34
2018-10-05T15:18:16.475Z,24.59
2018-10-05T15:20:45.018Z,25.22
2018-10-05T15:23:13.680Z,25.22
2018-10-05T15:25:42.264Z,25.82
2018-10-05T15:28:10.895Z,25.92
2018-10-05T15:30:39.576Z,25.22
2018-10-05T15:33:08.157Z,26.09
2018-10-05T15:35:36.726Z,25.78
2018-10-05T15:38:05.514Z,25.90
2018-10-05T15:40:34.100Z,26.92
2018-10-05T15:43:02.609Z,26.65
2018-10-05T15:45:31.172Z,26.27
2018-10-05T15:47:59.703Z,26.05
2018-10-05T15:50:28.257Z,26.99
2018-10-05T15:52:57.111Z,26.46
2018-10-05T15:55:25.720Z,26.85
2018-10-05T15:57:54.243Z,27.62
2018-10-05T16:00:23.054Z,27.02
2018-10-05T16:02:51.876Z,27.03
2018-10-05T16:05:20.636Z,27.36
2018-10-05T16:07:49.282Z,27.71
2018-10-05T16:10:17.842Z,27.70
2018-10-05T16:12:46.554Z,27.91
2018-10-05T16:15:15.223Z,28.65
2018-10-05T16:17:43.943Z,28.39
2018-10-05T16:20:12.598Z,29.32
2018-10-05T16:25:31.973Z,30.18
2018-10-05T16:28:00.610Z,30.15
2018-10-05T16:30:29.305Z,29.95
2018-10-05T16:32:57.956Z,29.82
2018-10-05T16:35:26.566Z,30.75
2018-10-05T16:37:55.255Z,30.72
2018-10-05T16:40:23.832Z,30.97
2018-10-05T16:42:52.351Z,30.89
2018-10-05T16:45:21.022Z,30.98
2018-10-05T16:47:49.606Z,31.05
2018-10-05T16:50:18.211Z,31.44
2018-10-05T16:52:46.953Z,31.40
2018-10-05T16:55:15.716Z,31.63
2018-10-05T16:57:44.309Z,33.06
2018-10-05T17:00:12.930Z,32.95
2018-10-05T17:02:41.587Z,32.82
2018-10-05T17:05:10.197Z,33.93
2018-10-05T17:07:39.080Z,33.38
2018-10-05T17:10:07.708Z,34.49
2018-10-05T17:12:36.568Z,34.30
2018-10-05T17:15:05.274Z,34.87
2018-10-05T17:17:33.948Z,35.47
2018-10-05T17:20:02.985Z,36.64
2018-10-05T17:22:31.961Z,37.36
2018-10-05T17:25:00.650Z,37.53
2018-10-05T17:27:29.429Z,37.81
2018-10-05T17:29:58.768Z,37.92
2018-10-05T17:32:27.443Z,38.99
2018-10-05T17:34:56.131Z,38.68
2018-10-05T17:37:24.712Z,38.67
2018-10-05T17:39:53.363Z,38.87
2018-10-05T17:42:22.073Z,39.08
2018-10-05T17:44:50.711Z,38.66
2018-10-05T17:47:19.299Z,39.48
2018-10-05T17:49:47.977Z,38.98
2018-10-05T17:52:16.667Z,38.98
2018-10-05T17:54:45.416Z,38.74
2018-10-05T17:57:14.087Z,39.37
2018-10-05T17:59:44.604Z,39.86
2018-10-05T18:02:13.230Z,39.24
2018-10-05T18:04:41.892Z,39.87
2018-10-05T18:07:10.845Z,39.42
2018-10-05T18:09:39.511Z,39.70
2018-10-05T18:12:08.183Z,39.71
2018-10-05T18:14:36.900Z,40.05
2018-10-05T18:17:05.452Z,39.48
2018-10-05T18:19:34.275Z,39.83
2018-10-05T18:22:02.899Z,40.22
2018-10-05T18:24:31.576Z,40.41
2018-10-05T18:27:00.128Z,40.64
2018-10-05T18:29:29.527Z,40.66
2018-10-05T18:31:58.209Z,39.95
2018-10-05T18:34:26.781Z,40.94
2018-10-05T18:36:56.401Z,40.55
2018-10-05T18:39:25.009Z,40.75
2018-10-05T18:41:53.592Z,40.85
2018-10-05T18:44:22.360Z,40.98
2018-10-05T18:46:51.155Z,41.17
2018-10-05T18:49:20.188Z,41.45
2018-10-05T18:51:48.846Z,41.61
2018-10-05T18:54:17.668Z,41.45
2018-10-05T18:56:57.495Z,41.30
2018-10-05T18:59:26.449Z,41.65
2018-10-05T19:01:55.081Z,41.68
2018-10-05T19:04:24.012Z,42.20
2018-10-05T19:06:52.965Z,41.39
2018-10-05T19:09:21.807Z,42.34
2018-10-05T19:11:50.755Z,42.31
2018-10-05T19:14:19.544Z,41.95
2018-10-05T19:16:48.315Z,42.62
2018-10-05T19:19:17.306Z,42.82
2018-10-05T19:21:46.359Z,41.98
2018-10-05T19:24:15.015Z,42.94
2018-10-05T19:26:43.836Z,42.93
2018-10-05T19:29:12.804Z,43.22
2018-10-05T19:31:41.533Z,42.21
2018-10-05T19:34:10.416Z,42.95
2018-10-05T19:36:39.115Z,43.16
2018-10-05T19:39:09.575Z,43.29
2018-10-05T19:41:38.938Z,43.47
2018-10-05T19:44:08.764Z,43.63
2018-10-05T19:46:37.643Z,43.91
2018-10-05T19:49:06.308Z,44.21
2018-10-05T19:51:35.015Z,44.06
2018-10-05T19:54:04.653Z,43.55
2018-10-05T19:56:33.342Z,43.44
2018-10-05T19:59:01.936Z,43.81
2018-10-05T20:01:30.594Z,43.92
2018-10-05T20:03:59.217Z,44.39
2018-10-05T20:06:27.795Z,44.26
2018-10-05T20:08:56.583Z,44.17
2018-10-05T20:11:25.231Z,44.40
2018-10-05T20:13:53.813Z,45.27
2018-10-05T20:16:22.726Z,44.65
2018-10-05T20:18:51.315Z,44.67
2018-10-05T20:21:19.848Z,45.53
2018-10-05T20:23:48.518Z,46.07
2018-10-05T20:26:17.141Z,45.10
2018-10-05T20:28:45.748Z,46.06
2018-10-05T20:31:14.335Z,45.80
2018-10-05T20:33:42.922Z,45.71
2018-10-05T20:36:11.715Z,46.45
2018-10-05T20:38:40.169Z,46.01
2018-10-05T20:41:08.751Z,45.94
2018-10-05T20:43:37.325Z,46.02
2018-10-05T20:46:06.292Z,46.09
2018-10-05T20:48:34.834Z,46.64
2018-10-05T20:51:03.595Z,46.58
2018-10-05T20:53:32.166Z,46.62
2018-10-05T20:56:00.724Z,47.04
2018-10-05T20:58:29.301Z,47.15
2018-10-05T21:00:57.820Z,47.11
2018-10-05T21:03:26.399Z,47.35
2018-10-05T21:05:55.047Z,47.03
2018-10-05T21:08:23.675Z,46.88
2018-10-05T21:10:52.275Z,46.80
2018-10-05T21:13:20.884Z,47.02
2018-10-05T21:15:49.463Z,47.03
2018-10-05T21:18:17.976Z,47.58
2018-10-05T21:20:46.656Z,47.01
2018-10-05T21:23:15.276Z,47.26
2018-10-05T21:25:44.137Z,47.94
2018-10-05T21:28:12.892Z,47.16
2018-10-05T21:30:41.509Z,48.21
2018-10-05T21:33:10.391Z,47.81
2018-10-05T21:35:39.076Z,47.74
2018-10-05T21:38:07.845Z,47.27
2018-10-05T21:40:36.470Z,48.12
2018-10-05T21:43:05.162Z,47.37
2018-10-05T21:45:33.824Z,47.79
2018-10-05T21:48:03.273Z,47.58
2018-10-05T21:50:31.944Z,48.26
2018-10-05T21:53:02.491Z,47.52
2018-10-05T21:55:31.847Z,47.91
2018-10-05T21:58:00.661Z,47.92
2018-10-05T22:00:36.394Z,48.02
2018-10-05T22:03:05.186Z,48.83
2018-10-05T22:05:33.850Z,48.86
2018-10-05T22:08:02.542Z,48.55
2018-10-05T22:10:33.344Z,48.99
2018-10-05T22:13:02.012Z,48.94
2018-10-05T22:15:30.693Z,49.08
2018-10-05T22:17:59.282Z,48.42
2018-10-05T22:20:27.973Z,49.35
2018-10-05T22:22:56.720Z,48.61
2018-10-05T22:25:25.525Z,48.72
2018-10-05T22:27:54.187Z,48.80
2018-10-05T22:30:22.848Z,49.33
2018-10-05T22:32:51.533Z,49.65
2018-10-05T22:35:20.189Z,49.58
2018-10-05T22:37:48.778Z,49.71
2018-10-05T22:40:17.428Z,49.69
2018-10-05T22:42:46.061Z,49.70
2018-10-05T22:45:14.723Z,49.68
2018-10-05T22:47:43.395Z,50.06
2018-10-05T22:50:12.040Z,49.68
2018-10-05T22:52:40.697Z,49.71
2018-10-05T22:55:09.331Z,50.02
2018-10-05T22:57:37.999Z,49.89
2018-10-05T23:00:06.920Z,50.13
2018-10-05T23:02:35.656Z,51.08
2018-10-05T23:05:05.152Z,50.51
2018-10-05T23:07:37.066Z,50.50
2018-10-05T23:10:06.233Z,51.17
2018-10-05T23:12:35.261Z,50.56
2018-10-05T23:15:05.185Z,50.98
2018-10-05T23:17:34.851Z,51.38
2018-10-05T23:20:03.699Z,51.36
2018-10-05T23:22:33.224Z,51.54
2018-10-05T23:25:02.424Z,51.65
2018-10-05T23:27:31.583Z,51.07
2018-10-05T23:30:00.595Z,51.28
2018-10-05T23:32:29.478Z,50.89
2018-10-05T23:34:58.577Z,51.79
2018-10-05T23:37:27.652Z,50.99
2018-10-05T23:39:56.537Z,51.46
2018-10-05T23:42:25.531Z,51.47
2018-10-05T23:44:54.578Z,51.36
2018-10-05T23:47:23.577Z,51.28
2018-10-05T23:49:52.144Z,51.60
2018-10-05T23:52:47.380Z,51.78
2018-10-05T23:55:16.173Z,52.26
2018-10-05T23:57:45.227Z,52.35
